Time;durP1;ratioP1;P1;durP2;ratioP2;P2;SDS_P1;SDS_P2;PMS_P1;PMS_P2;Temp;Humidity;BMP_temperature;BMP_pressure;BME280_temperature;BME280_humidity;BME280_pressure;Samples;Min_cycle;Max_cycle;Signal;HPM_P1;HPM_P2
2022/02/06 00:02:07;;;;;;;5.20;2.63;;;5.20;89.20;;;;;;4915363;29;20686;-73
2022/02/06 00:04:34;;;;;;;3.77;3.47;;;5.20;88.80;;;;;;4929835;29;20242;-73
2022/02/06 00:07:00;;;;;;;3.23;3.03;;;5.20;88.60;;;;;;4930405;29;20261;-73
2022/02/06 00:09:26;;;;;;;4.20;3.30;;;5.30;88.70;;;;;;4928565;29;20203;-74
2022/02/06 00:11:51;;;;;;;3.20;3.00;;;5.30;88.40;;;;;;4931068;28;20179;-74
2022/02/06 00:14:17;;;;;;;3.87;3.63;;;5.30;88.20;;;;;;4928752;28;20227;-74
2022/02/06 00:16:43;;;;;;;4.03;3.50;;;5.30;87.90;;;;;;4980586;28;20193;-74
2022/02/06 00:19:09;;;;;;;5.17;3.57;;;5.30;87.90;;;;;;5014600;28;20212;-73
2022/02/06 00:21:35;;;;;;;3.77;3.47;;;5.40;87.80;;;;;;5012310;28;20203;-74
2022/02/06 00:24:03;;;;;;;4.37;3.73;;;5.40;87.70;;;;;;5012367;28;20208;-73
2022/02/06 00:29:10;;;;;;;4.77;4.10;;;5.40;87.40;;;;;;5011676;28;20185;-74
2022/02/06 00:31:56;;;;;;;4.87;4.43;;;5.40;87.10;;;;;;5011414;28;20275;-74
2022/02/06 00:35:15;;;;;;;5.27;4.60;;;5.40;86.90;;;;;;5013720;28;20264;-74
2022/02/06 00:39:58;;;;;;;6.53;5.50;;;5.40;86.80;;;;;;5010320;28;20251;-73
2022/02/06 00:42:25;;;;;;;9.63;5.57;;;5.40;86.90;;;;;;5014612;28;20607;-74
2022/02/06 00:44:51;;;;;;;5.37;4.87;;;5.40;87.20;;;;;;5007168;28;20215;-74
2022/02/06 00:47:16;;;;;;;6.93;5.10;;;5.40;87.10;;;;;;5012968;28;20183;-75
2022/02/06 00:49:44;;;;;;;5.53;4.77;;;5.30;87.30;;;;;;5011986;28;20173;-75
2022/02/06 00:52:17;;;;;;;5.40;4.70;;;5.30;87.20;;;;;;5011612;28;20185;-75
2022/02/06 00:54:42;;;;;;;7.57;5.40;;;5.30;87.20;;;;;;5010845;28;20184;-75
2022/02/06 00:57:08;;;;;;;7.03;5.10;;;5.30;87.10;;;;;;5007646;28;20196;-74
2022/02/06 00:59:34;;;;;;;7.67;5.20;;;5.30;87.20;;;;;;5009417;28;20188;-75
2022/02/06 01:02:00;;;;;;;6.13;4.57;;;5.20;87.30;;;;;;5013692;28;20208;-74
2022/02/06 01:04:28;;;;;;;8.27;4.97;;;5.20;87.00;;;;;;5011466;28;20556;-75
2022/02/06 01:06:53;;;;;;;5.47;4.97;;;5.20;87.00;;;;;;5006348;28;20192;-75
2022/02/06 01:09:20;;;;;;;7.10;4.83;;;5.10;86.90;;;;;;5010763;28;20658;-74
2022/02/06 01:11:47;;;;;;;5.67;4.83;;;5.10;86.70;;;;;;5011976;28;20184;-74
2022/02/06 01:17:08;;;;;;;6.37;5.27;;;5.10;86.60;;;;;;5009240;28;20192;-74
2022/02/06 01:19:46;;;;;;;4.93;4.47;;;5.00;86.60;;;;;;5013218;28;20700;-74
2022/02/06 01:22:14;;;;;;;6.53;5.23;;;5.00;86.60;;;;;;5006843;28;20275;-75
2022/02/06 01:24:45;;;;;;;5.13;4.63;;;4.90;86.70;;;;;;5006618;28;20255;-74
2022/02/06 01:27:17;;;;;;;6.93;5.07;;;4.90;86.60;;;;;;5010165;28;21098;-74
2022/02/06 01:29:58;;;;;;;6.87;4.73;;;4.90;86.50;;;;;;5012845;28;20251;-73
2022/02/06 01:32:34;;;;;;;6.57;5.27;;;4.80;86.50;;;;;;5013026;28;20192;-74
2022/02/06 01:35:08;;;;;;;5.83;5.10;;;4.80;86.50;;;;;;5007961;28;20191;-74
2022/02/06 01:37:44;;;;;;;5.50;4.80;;;4.80;86.70;;;;;;5015113;28;20204;-74
2022/02/06 01:42:42;;;;;;;5.50;5.00;;;4.80;86.80;;;;;;5011362;28;20267;-74
2022/02/06 02:04:09;;;;;;;7.50;4.90;;;5.00;86.00;;;;;;5014026;28;20226;-74
2022/02/06 02:12:25;;;;;;;5.40;4.90;;;5.10;85.20;;;;;;5011629;28;20192;-73
2022/02/06 02:46:40;;;;;;;6.93;4.10;;;4.80;83.40;;;;;;4976075;28;20194;-73
2022/02/06 02:49:12;;;;;;;6.93;4.63;;;4.80;83.30;;;;;;4975918;28;20193;-73
2022/02/06 02:51:42;;;;;;;5.97;4.27;;;4.80;83.10;;;;;;4965723;28;20204;-74
2022/02/06 02:54:12;;;;;;;6.03;4.13;;;4.80;82.90;;;;;;4967160;28;20199;-73
2022/02/06 02:59:39;;;;;;;5.90;4.77;;;4.70;82.90;;;;;;4968977;28;20771;-74
2022/02/06 03:01:57;;;;;;;5.83;4.50;;;4.70;82.80;;;;;;4970799;28;20208;-73
2022/02/06 03:04:24;;;;;;;5.33;4.67;;;4.70;83.00;;;;;;4967893;28;20229;-73
2022/02/06 03:06:50;;;;;;;5.03;4.53;;;4.70;83.00;;;;;;4972282;28;20208;-73
2022/02/06 03:09:17;;;;;;;5.30;4.03;;;4.60;83.00;;;;;;4972093;28;20190;-73
2022/02/06 03:11:43;;;;;;;3.67;3.13;;;4.60;83.00;;;;;;4971884;28;20186;-75
2022/02/06 03:14:17;;;;;;;4.60;4.20;;;4.60;83.00;;;;;;4979892;28;20203;-74
2022/02/06 03:16:49;;;;;;;5.37;4.10;;;4.60;82.90;;;;;;5012361;28;20192;-74
2022/02/06 03:19:17;;;;;;;6.13;4.50;;;4.60;83.00;;;;;;5010350;28;20188;-74
2022/02/06 03:21:45;;;;;;;6.77;4.90;;;4.50;83.10;;;;;;5007519;28;20276;-74
2022/02/06 03:26:46;;;;;;;6.63;5.97;;;4.30;83.80;;;;;;5009903;28;20342;-74
2022/02/06 03:29:12;;;;;;;8.30;6.33;;;4.30;83.60;;;;;;5009224;28;20196;-73
2022/02/06 03:31:38;;;;;;;8.53;5.90;;;4.20;83.60;;;;;;5013227;28;20183;-73
2022/02/06 03:34:05;;;;;;;6.67;5.80;;;4.20;83.30;;;;;;5012822;28;20182;-73
2022/02/06 03:36:31;;;;;;;13.13;5.70;;;4.10;83.10;;;;;;5011987;28;20259;-74
2022/02/06 03:38:56;;;;;;;7.57;5.63;;;4.10;83.10;;;;;;5017029;28;20734;-74
2022/02/06 03:41:24;;;;;;;7.97;4.90;;;4.00;83.20;;;;;;5017237;28;20210;-73
2022/02/06 03:49:01;;;;;;;4.77;3.73;;;3.90;82.70;;;;;;5011595;28;20659;-75
2022/02/06 03:51:33;;;;;;;3.93;3.33;;;3.90;82.20;;;;;;5008441;28;20193;-73
2022/02/06 03:54:00;;;;;;;3.53;3.30;;;3.90;81.80;;;;;;5013406;28;20213;-73
2022/02/06 03:56:28;;;;;;;3.60;3.30;;;3.90;81.30;;;;;;5009771;28;20311;-73
2022/02/06 03:58:54;;;;;;;4.87;3.10;;;3.90;81.10;;;;;;5011963;28;20184;-73
2022/02/06 04:01:20;;;;;;;3.27;2.97;;;3.80;80.70;;;;;;5014404;28;20255;-74
2022/02/06 04:03:49;;;;;;;3.30;3.00;;;3.80;80.30;;;;;;5010931;28;20216;-74
2022/02/06 04:06:15;;;;;;;3.60;3.03;;;3.80;80.10;;;;;;5011224;28;20184;-74
2022/02/06 04:08:42;;;;;;;2.73;2.40;;;3.80;79.90;;;;;;5010091;28;20184;-74
2022/02/06 04:11:13;;;;;;;2.47;2.33;;;3.80;79.90;;;;;;5010092;28;20187;-73
2022/02/06 04:13:53;;;;;;;1.80;1.63;;;3.80;79.50;;;;;;5008208;28;20285;-73
2022/02/06 04:16:26;;;;;;;2.80;2.53;;;3.70;78.00;;;;;;5011911;28;20836;-73
2022/02/06 04:19:04;;;;;;;2.40;1.93;;;3.70;77.10;;;;;;5009959;28;20750;-73
2022/02/06 04:21:31;;;;;;;4.30;2.27;;;3.70;76.10;;;;;;5005432;28;20185;-73
2022/02/06 04:23:57;;;;;;;1.37;1.27;;;3.70;76.00;;;;;;5012259;28;20581;-73
2022/02/06 04:26:22;;;;;;;1.80;1.70;;;3.80;75.60;;;;;;5009998;28;20184;-73
2022/02/06 04:28:48;;;;;;;3.07;2.20;;;3.80;75.70;;;;;;5007859;28;20571;-73
2022/02/06 04:31:14;;;;;;;2.00;1.90;;;3.90;75.70;;;;;;5014681;28;20188;-74
2022/02/06 04:33:39;;;;;;;3.70;2.57;;;3.90;75.80;;;;;;5011661;28;20281;-73
2022/02/06 04:36:10;;;;;;;8.20;2.50;;;3.90;75.90;;;;;;5010379;28;20188;-73
2022/02/06 04:44:15;;;;;;;5.77;3.47;;;3.80;75.60;;;;;;5010986;28;20299;-73
2022/02/06 05:34:15;;;;;;;2.53;2.30;;;3.70;73.80;;;;;;4948162;28;20198;-72
2022/02/06 05:36:41;;;;;;;2.50;2.33;;;3.70;73.40;;;;;;4953488;28;21717;-73
2022/02/06 05:39:10;;;;;;;3.67;2.33;;;3.70;73.30;;;;;;4948524;28;21005;-73
2022/02/06 05:41:35;;;;;;;2.60;2.47;;;3.70;73.00;;;;;;4952156;28;20198;-73
2022/02/06 05:44:03;;;;;;;3.40;3.03;;;3.70;72.80;;;;;;4938565;28;20299;-73
2022/02/06 05:46:29;;;;;;;2.10;2.00;;;3.70;72.80;;;;;;4952651;28;20593;-73
2022/02/06 05:48:54;;;;;;;2.40;1.90;;;3.70;72.90;;;;;;4953184;28;20182;-74
2022/02/06 05:51:21;;;;;;;2.50;2.10;;;3.60;72.90;;;;;;4952027;28;20193;-74
2022/02/06 05:53:48;;;;;;;1.60;1.50;;;3.70;73.20;;;;;;4989777;28;20733;-74
2022/02/06 05:56:16;;;;;;;3.20;1.90;;;3.70;73.20;;;;;;5014033;28;20181;-73
2022/02/06 05:58:45;;;;;;;2.83;2.53;;;3.70;73.30;;;;;;5012416;28;21096;-73
2022/02/06 06:01:11;;;;;;;3.80;2.03;;;3.70;73.30;;;;;;5011575;28;20177;-73
2022/02/06 06:03:37;;;;;;;2.03;1.93;;;3.70;73.40;;;;;;5014119;28;20204;-73
2022/02/06 06:06:03;;;;;;;3.53;1.97;;;3.70;73.50;;;;;;5010747;28;20178;-73
2022/02/06 06:08:29;;;;;;;1.93;1.83;;;3.60;73.50;;;;;;5009820;28;20219;-73
2022/02/06 06:10:55;;;;;;;1.67;1.63;;;3.70;73.60;;;;;;5012483;28;20185;-73
2022/02/06 06:13:22;;;;;;;2.30;2.20;;;3.70;73.80;;;;;;5012915;28;20185;-73
2022/02/06 06:15:48;;;;;;;3.87;2.53;;;3.60;73.90;;;;;;5015750;28;20185;-73
2022/02/06 06:18:14;;;;;;;2.97;2.27;;;3.70;74.10;;;;;;5009384;28;20222;-73
2022/02/06 06:20:44;;;;;;;1.90;1.80;;;3.70;73.90;;;;;;5012185;28;20185;-74
2022/02/06 06:23:10;;;;;;;3.63;1.83;;;3.70;73.90;;;;;;5009901;28;20185;-74
2022/02/06 06:25:38;;;;;;;1.63;1.60;;;3.70;73.90;;;;;;5012428;28;20180;-72
2022/02/06 06:28:06;;;;;;;1.93;1.83;;;3.70;73.90;;;;;;5013146;28;20251;-73
2022/02/06 06:30:32;;;;;;;1.47;1.47;;;3.70;73.90;;;;;;5016560;28;20621;-74
2022/02/06 06:32:57;;;;;;;2.10;1.90;;;3.80;73.90;;;;;;5014540;28;20293;-73
2022/02/06 06:35:23;;;;;;;3.00;1.93;;;3.80;73.90;;;;;;5010216;28;20276;-74
2022/02/06 06:37:50;;;;;;;1.83;1.73;;;3.80;74.00;;;;;;5014904;28;20193;-74
2022/02/06 06:40:17;;;;;;;2.27;2.07;;;3.80;74.10;;;;;;5013833;28;20188;-75
2022/02/06 06:42:44;;;;;;;2.27;2.17;;;3.90;74.20;;;;;;5016218;28;20191;-74
2022/02/06 06:45:10;;;;;;;4.20;1.97;;;3.90;74.30;;;;;;5013288;28;20243;-75
2022/02/06 06:47:36;;;;;;;3.83;2.17;;;4.00;74.40;;;;;;5012358;28;20184;-73
2022/02/06 06:50:03;;;;;;;2.07;1.97;;;4.00;74.50;;;;;;5007958;28;20185;-74
2022/02/06 06:52:29;;;;;;;6.20;2.30;;;4.10;74.50;;;;;;5011728;28;20181;-75
2022/02/06 06:55:01;;;;;;;7.77;3.27;;;4.20;74.80;;;;;;5015379;28;20630;-74
2022/02/06 06:57:34;;;;;;;5.13;3.77;;;4.30;75.20;;;;;;5013935;28;20224;-74
2022/02/06 07:02:32;;;;;;;6.97;4.23;;;4.50;76.10;;;;;;5010383;28;20243;-75
2022/02/06 07:05:03;;;;;;;6.23;4.47;;;4.70;76.30;;;;;;5008621;28;20221;-75
2022/02/06 07:07:30;;;;;;;9.00;5.37;;;4.90;76.60;;;;;;5010335;28;20219;-75
2022/02/06 07:09:56;;;;;;;8.70;5.33;;;5.20;76.60;;;;;;5014871;28;20268;-75
2022/02/06 07:12:25;;;;;;;6.27;4.57;;;5.70;76.30;;;;;;5007760;28;20258;-75
2022/02/06 07:14:51;;;;;;;7.80;5.63;;;6.30;75.40;;;;;;5011245;28;20184;-75
2022/02/06 07:17:18;;;;;;;6.33;5.27;;;6.90;74.80;;;;;;5008988;28;20184;-75
2022/02/06 07:19:44;;;;;;;7.73;5.20;;;7.70;73.70;;;;;;5012188;28;20243;-75
2022/02/06 07:22:15;;;;;;;8.53;5.50;;;8.40;71.90;;;;;;5013749;28;20215;-75
2022/02/06 07:24:42;;;;;;;9.13;5.47;;;9.20;70.70;;;;;;5012349;28;20255;-75
2022/02/06 07:29:43;;;;;;;7.27;5.63;;;10.70;68.60;;;;;;5007130;28;20196;-73
2022/02/06 07:32:09;;;;;;;6.18;5.57;;;11.50;67.30;;;;;;5008744;28;20271;-74
2022/02/06 07:34:35;;;;;;;9.45;5.97;;;12.20;66.90;;;;;;5011390;28;20196;-73
2022/02/06 07:37:01;;;;;;;5.97;5.38;;;12.90;65.70;;;;;;5014089;28;20181;-74
2022/02/06 07:39:26;;;;;;;6.82;5.90;;;13.60;64.00;;;;;;5013038;28;20199;-74
2022/02/06 07:41:52;;;;;;;7.18;5.45;;;14.30;63.30;;;;;;5011551;28;20239;-73
2022/02/06 07:44:18;;;;;;;9.00;6.30;;;14.90;60.40;;;;;;5008550;28;20232;-73
2022/02/06 07:46:47;;;;;;;8.43;6.30;;;15.50;59.80;;;;;;5009238;28;20229;-75
2022/02/06 07:49:14;;;;;;;7.43;6.00;;;16.00;59.20;;;;;;5045346;28;20192;-76
2022/02/06 07:51:41;;;;;;;6.57;5.95;;;16.60;58.20;;;;;;5016142;28;20177;-76
2022/02/06 07:54:07;;;;;;;10.13;6.60;;;17.10;57.30;;;;;;5015641;28;20188;-75
2022/02/06 07:56:32;;;;;;;11.43;6.35;;;17.60;56.20;;;;;;5012173;28;20185;-73
2022/02/06 07:58:58;;;;;;;7.93;6.97;;;18.10;56.00;;;;;;5013767;28;20208;-73
2022/02/06 08:01:25;;;;;;;8.40;6.93;;;18.50;53.80;;;;;;5006776;28;20180;-76
2022/02/06 08:03:51;;;;;;;9.98;7.47;;;18.80;54.00;;;;;;5010310;28;21143;-74
2022/02/06 08:06:17;;;;;;;7.03;6.20;;;19.20;52.70;;;;;;5008592;28;20279;-75
2022/02/06 08:08:43;;;;;;;9.90;6.95;;;19.50;51.90;;;;;;5008329;28;20367;-74
2022/02/06 08:11:13;;;;;;;8.68;7.22;;;19.90;52.00;;;;;;5008968;28;20181;-74
2022/02/06 08:13:43;;;;;;;9.57;7.38;;;20.20;51.90;;;;;;5001477;28;20233;-74
2022/02/06 08:16:09;;;;;;;9.30;7.35;;;20.50;51.30;;;;;;5000220;28;20185;-75
2022/02/06 08:18:39;;;;;;;10.27;6.93;;;20.80;50.60;;;;;;5001806;28;20270;-75
2022/02/06 08:21:08;;;;;;;11.90;6.07;;;21.10;49.90;;;;;;5003172;28;20181;-74
2022/02/06 08:23:34;;;;;;;6.63;5.63;;;21.40;50.10;;;;;;5000524;28;20216;-74
2022/02/06 08:26:00;;;;;;;8.80;5.82;;;21.70;50.30;;;;;;5000230;28;20662;-75
2022/02/06 08:28:26;;;;;;;6.78;6.10;;;21.90;49.70;;;;;;5000349;28;20193;-74
2022/02/06 08:30:51;;;;;;;5.88;5.38;;;22.20;49.00;;;;;;4997948;28;20248;-78
2022/02/06 08:33:17;;;;;;;5.97;5.38;;;22.50;48.80;;;;;;5001680;28;20177;-75
2022/02/06 08:35:45;;;;;;;5.93;5.00;;;22.90;48.30;;;;;;4999034;28;20192;-73
2022/02/06 08:38:12;;;;;;;5.72;4.95;;;23.10;47.20;;;;;;4998698;28;20204;-73
2022/02/06 08:40:39;;;;;;;7.97;4.68;;;23.20;46.90;;;;;;4998948;28;20181;-74
2022/02/06 08:43:05;;;;;;;5.53;4.97;;;23.40;47.90;;;;;;5002412;28;20185;-74
2022/02/06 08:45:31;;;;;;;10.30;4.75;;;23.60;47.20;;;;;;5002150;28;20212;-75
2022/02/06 08:47:57;;;;;;;7.03;5.35;;;24.00;47.30;;;;;;5003761;28;20661;-74
2022/02/06 08:50:23;;;;;;;5.65;5.15;;;24.30;48.00;;;;;;5001745;28;20590;-73
2022/02/06 08:52:49;;;;;;;5.35;4.85;;;24.70;47.10;;;;;;5002975;28;20180;-73
2022/02/06 08:55:16;;;;;;;5.88;4.63;;;25.10;45.80;;;;;;5000964;28;20216;-74
2022/02/06 08:57:47;;;;;;;5.05;4.65;;;25.30;44.40;;;;;;4999518;28;20173;-74
2022/02/06 09:00:15;;;;;;;4.78;4.47;;;25.60;45.40;;;;;;5000527;28;20907;-74
2022/02/06 09:02:41;;;;;;;8.07;5.40;;;25.80;44.10;;;;;;4998867;28;20899;-73
2022/02/06 09:05:08;;;;;;;6.25;4.68;;;25.80;43.80;;;;;;5001468;28;20706;-72
2022/02/06 09:07:34;;;;;;;5.18;4.00;;;25.90;43.40;;;;;;5002234;28;20192;-73
2022/02/06 09:10:01;;;;;;;4.93;4.53;;;26.10;43.40;;;;;;5001308;28;20200;-74
2022/02/06 09:12:28;;;;;;;4.90;4.50;;;26.30;43.50;;;;;;4999734;28;20190;-74
2022/02/06 09:14:54;;;;;;;4.10;3.90;;;26.50;43.10;;;;;;5001752;28;20215;-74
2022/02/06 09:17:20;;;;;;;3.75;3.47;;;26.80;43.00;;;;;;5000168;28;20242;-74
2022/02/06 09:19:47;;;;;;;3.63;3.33;;;26.90;42.30;;;;;;4997904;28;20188;-74
2022/02/06 09:22:14;;;;;;;4.05;3.67;;;27.00;42.40;;;;;;4999390;28;20181;-74
2022/02/06 09:24:41;;;;;;;4.05;3.75;;;27.20;41.80;;;;;;4999685;28;20613;-74
2022/02/06 09:27:07;;;;;;;4.75;4.05;;;27.40;42.00;;;;;;5000681;28;20208;-73
2022/02/06 09:29:34;;;;;;;3.28;3.08;;;27.60;41.20;;;;;;5000181;28;20189;-74
2022/02/06 09:37:08;;;;;;;4.00;3.70;;;27.90;41.70;;;;;;4999589;28;20181;-73
2022/02/06 09:39:38;;;;;;;3.55;3.28;;;28.10;41.30;;;;;;4997920;28;20203;-75
2022/02/06 09:42:05;;;;;;;3.33;3.00;;;28.30;41.20;;;;;;4998481;28;20196;-74
2022/02/06 09:44:31;;;;;;;3.88;3.63;;;28.40;41.00;;;;;;5001196;28;21004;-74
2022/02/06 09:46:58;;;;;;;3.20;3.10;;;28.50;41.00;;;;;;4999674;28;20189;-74
2022/02/06 09:49:26;;;;;;;3.03;2.90;;;28.60;40.50;;;;;;4999390;28;20895;-74
2022/02/06 09:51:52;;;;;;;3.22;3.03;;;28.60;40.60;;;;;;4999600;28;20637;-74
2022/02/06 09:54:21;;;;;;;3.42;3.00;;;28.70;39.20;;;;;;4999626;28;20212;-75
2022/02/06 09:56:53;;;;;;;3.47;3.10;;;28.80;40.40;;;;;;4997470;28;20212;-72
2022/02/06 09:59:22;;;;;;;2.58;2.45;;;28.80;38.60;;;;;;4999044;28;20189;-73
2022/02/06 10:01:56;;;;;;;2.92;2.83;;;28.70;37.90;;;;;;5000564;28;20181;-73
2022/02/06 10:04:27;;;;;;;3.17;2.60;;;28.20;39.30;;;;;;4999181;28;20603;-73
2022/02/06 10:07:07;;;;;;;2.85;2.72;;;28.20;40.00;;;;;;4999014;28;20189;-73
2022/02/06 10:09:56;;;;;;;2.25;2.15;;;28.40;40.40;;;;;;4999910;28;20204;-73
2022/02/06 10:12:23;;;;;;;2.50;2.40;;;28.40;37.00;;;;;;4999240;28;20315;-74
2022/02/06 10:14:49;;;;;;;2.78;2.50;;;28.30;39.50;;;;;;5002929;28;20292;-74
2022/02/06 10:17:15;;;;;;;2.75;2.42;;;28.30;36.80;;;;;;5006147;28;20907;-74
2022/02/06 10:19:50;;;;;;;2.35;2.15;;;27.90;39.10;;;;;;5004430;28;20260;-74
2022/02/06 10:22:36;;;;;;;2.67;2.47;;;27.60;38.90;;;;;;5002232;28;20196;-74
2022/02/06 10:25:06;;;;;;;2.55;2.35;;;27.60;37.50;;;;;;4998139;28;20191;-74
2022/02/06 10:27:47;;;;;;;3.25;2.42;;;27.50;39.90;;;;;;5001948;28;20263;-74
2022/02/06 10:30:37;;;;;;;2.33;2.22;;;27.70;38.40;;;;;;5000261;28;20192;-73
2022/02/06 10:33:05;;;;;;;2.63;2.47;;;27.90;39.70;;;;;;5001164;28;20191;-73
2022/02/06 10:35:41;;;;;;;2.08;1.98;;;28.20;39.10;;;;;;5002585;28;20232;-74
2022/02/06 10:38:20;;;;;;;2.70;2.30;;;28.50;39.60;;;;;;5001997;28;20195;-73
2022/02/06 10:41:04;;;;;;;1.90;1.90;;;28.60;38.00;;;;;;5002082;28;21070;-73
2022/02/06 10:43:30;;;;;;;2.63;2.42;;;28.80;37.10;;;;;;5001846;28;20185;-73
2022/02/06 10:46:13;;;;;;;2.30;2.15;;;29.00;38.70;;;;;;5000327;28;20234;-74
2022/02/06 10:48:46;;;;;;;2.53;2.35;;;29.30;36.40;;;;;;5001804;28;20192;-74
2022/02/06 10:51:43;;;;;;;3.13;1.80;;;29.60;38.90;;;;;;4999904;28;20268;-74
2022/02/06 10:54:12;;;;;;;1.90;1.80;;;29.70;35.20;;;;;;4994550;28;20224;-74
2022/02/06 10:57:00;;;;;;;1.67;1.67;;;29.90;36.20;;;;;;4997823;28;20189;-74
2022/02/06 10:59:26;;;;;;;2.97;1.67;;;29.70;34.70;;;;;;4997235;28;20208;-74
2022/02/06 11:01:54;;;;;;;2.15;2.08;;;29.50;37.30;;;;;;4999282;28;20368;-73
2022/02/06 11:04:32;;;;;;;2.10;1.90;;;29.30;37.10;;;;;;4982611;28;20201;-74
2022/02/06 11:07:12;;;;;;;2.30;1.95;;;29.20;36.90;;;;;;5014307;28;20272;-73
2022/02/06 11:09:39;;;;;;;2.40;2.30;;;28.90;36.70;;;;;;4980733;28;20177;-74
2022/02/06 11:12:11;;;;;;;1.73;1.63;;;28.90;36.80;;;;;;5016812;28;20196;-73
2022/02/06 11:14:45;;;;;;;2.63;2.50;;;29.00;38.40;;;;;;4998428;28;20363;-73
2022/02/06 11:17:26;;;;;;;1.80;1.70;;;29.10;36.20;;;;;;4981219;28;20275;-73
2022/02/06 11:20:10;;;;;;;1.60;1.60;;;28.70;36.80;;;;;;4986714;28;20189;-73
2022/02/06 11:22:51;;;;;;;3.65;2.13;;;28.60;36.00;;;;;;4999821;28;20272;-73
2022/02/06 11:25:17;;;;;;;1.75;1.70;;;28.50;36.50;;;;;;5000068;28;20193;-73
2022/02/06 11:27:44;;;;;;;2.75;1.90;;;28.00;36.90;;;;;;4999542;28;20275;-74
2022/02/06 11:30:10;;;;;;;2.83;1.70;;;27.60;37.00;;;;;;5001494;28;20201;-73
2022/02/06 11:32:37;;;;;;;4.63;1.83;;;27.10;37.40;;;;;;5004058;28;20189;-73
2022/02/06 11:35:11;;;;;;;1.45;1.45;;;26.80;36.40;;;;;;5002365;28;20217;-73
2022/02/06 11:43:55;;;;;;;1.85;1.75;;;25.90;36.00;;;;;;5003328;28;20255;-73
2022/02/06 11:46:48;;;;;;;1.58;1.52;;;25.70;34.80;;;;;;5002913;28;20198;-72
2022/02/06 11:49:18;;;;;;;1.48;1.48;;;25.70;36.80;;;;;;5003330;28;20189;-73
2022/02/06 11:51:53;;;;;;;1.35;1.35;;;25.80;38.70;;;;;;5003172;28;20192;-73
2022/02/06 11:54:43;;;;;;;1.20;1.20;;;25.80;37.30;;;;;;5002208;28;20307;-73
2022/02/06 11:57:19;;;;;;;1.50;1.40;;;25.90;36.10;;;;;;5002567;28;20672;-73
2022/02/06 12:02:30;;;;;;;1.50;1.50;;;25.60;36.80;;;;;;5003305;28;20193;-72
2022/02/06 12:05:20;;;;;;;1.60;1.50;;;25.50;36.80;;;;;;5003482;28;20554;-73
2022/02/06 12:08:03;;;;;;;2.25;1.30;;;25.40;36.50;;;;;;5002774;28;20223;-73
2022/02/06 12:10:32;;;;;;;3.05;1.35;;;25.10;36.70;;;;;;5003233;28;20177;-72
2022/02/06 12:13:17;;;;;;;0.90;0.90;;;25.30;37.90;;;;;;5002750;28;20189;-72
2022/02/06 12:15:59;;;;;;;1.35;1.35;;;25.50;35.80;;;;;;5001047;28;20816;-73
2022/02/06 12:18:36;;;;;;;1.45;1.45;;;25.60;38.20;;;;;;5000675;28;20204;-72
2022/02/06 12:21:13;;;;;;;1.90;1.42;;;26.00;37.80;;;;;;5000548;28;20199;-72
2022/02/06 12:23:55;;;;;;;2.40;1.33;;;26.30;36.50;;;;;;5001751;28;20327;-73
2022/02/06 12:26:32;;;;;;;1.20;1.20;;;26.50;37.80;;;;;;5000092;28;20234;-71
2022/02/06 12:29:26;;;;;;;1.45;1.35;;;26.60;38.30;;;;;;5001591;28;20764;-72
2022/02/06 12:32:05;;;;;;;1.33;1.27;;;26.90;37.50;;;;;;5002571;28;20177;-73
2022/02/06 12:36:54;;;;;;;2.47;1.45;;;26.90;37.40;;;;;;5001852;28;20589;-72
2022/02/06 12:37:28;;;;;;;1.30;1.25;;;27.00;36.90;;;;;;5001843;28;20860;-73
2022/02/06 12:39:57;;;;;;;1.58;1.52;;;26.80;35.40;;;;;;5000413;28;20667;-72
2022/02/06 12:42:43;;;;;;;2.00;1.90;;;26.30;37.80;;;;;;5001024;28;20192;-73
2022/02/06 12:45:23;;;;;;;1.27;1.27;;;26.20;36.80;;;;;;5001622;28;20184;-73
2022/02/06 12:47:57;;;;;;;1.35;1.35;;;26.10;37.60;;;;;;5000272;28;20577;-73
2022/02/06 12:50:25;;;;;;;1.25;1.25;;;26.10;37.20;;;;;;5002317;28;20212;-71
2022/02/06 12:52:53;;;;;;;1.75;1.52;;;25.90;37.70;;;;;;5002377;28;20184;-72
2022/02/06 12:55:20;;;;;;;2.05;1.40;;;25.90;38.20;;;;;;5002161;28;20223;-72
2022/02/06 12:57:48;;;;;;;1.17;1.17;;;25.90;38.60;;;;;;5002121;28;20290;-72
2022/02/06 13:00:34;;;;;;;1.40;1.30;;;25.80;38.30;;;;;;5001900;28;20189;-72
2022/02/06 13:03:28;;;;;;;1.77;1.67;;;25.60;38.20;;;;;;5000253;28;20666;-72
2022/02/06 13:06:02;;;;;;;4.15;3.80;;;25.60;37.50;;;;;;4999526;28;20219;-72
2022/02/06 13:08:29;;;;;;;4.00;3.80;;;25.30;39.70;;;;;;5001064;28;20189;-68
2022/02/06 13:11:04;;;;;;;4.40;4.20;;;24.90;38.90;;;;;;5002045;28;20173;-74
2022/02/06 13:13:52;;;;;;;4.18;3.97;;;24.40;39.30;;;;;;5000756;28;20188;-71
2022/02/06 13:21:25;;;;;;;6.00;4.97;;;22.50;40.80;;;;;;5002575;28;20201;-73
2022/02/06 13:26:27;;;;;;;5.00;4.55;;;21.80;41.80;;;;;;5000367;28;20180;-73
2022/02/06 13:29:15;;;;;;;3.85;3.65;;;21.40;41.30;;;;;;5001438;28;20192;-73
2022/02/06 13:31:55;;;;;;;3.80;3.60;;;21.30;42.90;;;;;;5001993;28;20188;-73
2022/02/06 13:37:22;;;;;;;7.68;3.70;;;21.50;41.40;;;;;;4999726;28;20187;-73
2022/02/06 13:39:54;;;;;;;4.45;3.88;;;21.40;42.40;;;;;;5001565;28;20195;-73
2022/02/06 13:42:28;;;;;;;5.88;4.43;;;21.50;42.00;;;;;;5001028;28;20325;-73
2022/02/06 13:45:03;;;;;;;4.63;4.22;;;21.50;41.30;;;;;;5000458;28;20184;-74
2022/02/06 13:47:29;;;;;;;3.92;3.58;;;21.20;41.80;;;;;;5001429;28;20261;-73
2022/02/06 13:49:59;;;;;;;3.95;3.65;;;20.90;42.30;;;;;;5005754;28;20675;-73
2022/02/06 13:52:28;;;;;;;6.75;4.13;;;20.60;42.60;;;;;;5005664;28;20555;-73
2022/02/06 13:54:53;;;;;;;4.68;3.58;;;20.50;42.60;;;;;;5004528;28;20804;-73
2022/02/06 13:57:23;;;;;;;3.90;3.70;;;20.50;43.30;;;;;;5004710;28;20181;-73
2022/02/06 13:59:49;;;;;;;4.25;3.88;;;20.30;42.60;;;;;;5003083;28;20195;-73
2022/02/06 14:02:15;;;;;;;4.75;4.10;;;20.20;43.50;;;;;;5003257;28;20629;-73
2022/02/06 14:04:43;;;;;;;3.85;3.55;;;20.10;44.00;;;;;;5005426;28;20236;-73
2022/02/06 14:07:21;;;;;;;4.25;3.63;;;20.00;43.50;;;;;;5005433;28;20204;-73
2022/02/06 14:10:04;;;;;;;4.05;3.75;;;19.90;43.60;;;;;;5005116;28;20192;-73
2022/02/06 14:12:48;;;;;;;3.28;2.90;;;19.90;43.60;;;;;;5019452;28;20220;-73
2022/02/06 14:15:23;;;;;;;5.45;3.53;;;19.90;42.90;;;;;;5002972;28;20450;-73
2022/02/06 14:17:50;;;;;;;3.58;3.35;;;19.80;43.70;;;;;;5004946;28;20207;-73
2022/02/06 14:20:23;;;;;;;3.65;3.35;;;19.60;44.00;;;;;;5004912;28;20177;-73
2022/02/06 14:22:53;;;;;;;3.35;3.10;;;19.60;43.70;;;;;;5003576;28;20185;-73
2022/02/06 14:25:28;;;;;;;3.65;3.35;;;19.40;43.30;;;;;;5004626;28;20255;-73
2022/02/06 14:27:54;;;;;;;2.88;2.67;;;19.00;44.20;;;;;;5004689;28;20193;-73
2022/02/06 14:30:27;;;;;;;4.47;3.25;;;18.70;44.00;;;;;;5004904;28;20212;-73
2022/02/06 14:33:11;;;;;;;4.43;3.67;;;18.20;44.70;;;;;;5003503;28;20784;-73
2022/02/06 14:35:43;;;;;;;5.07;3.67;;;17.90;45.60;;;;;;5003190;28;20225;-73
2022/02/06 14:38:15;;;;;;;3.75;3.45;;;17.90;45.40;;;;;;5003130;28;20184;-73
2022/02/06 14:43:39;;;;;;;4.95;3.70;;;17.50;46.00;;;;;;5003893;28;20382;-73
2022/02/06 14:46:06;;;;;;;3.60;3.38;;;17.30;46.30;;;;;;5003704;28;20185;-73
2022/02/06 14:48:32;;;;;;;3.90;3.55;;;17.10;47.00;;;;;;5002564;28;20584;-73
2022/02/06 14:50:59;;;;;;;5.32;3.33;;;16.80;46.90;;;;;;5004763;28;20580;-73
2022/02/06 14:53:25;;;;;;;4.53;3.50;;;16.50;46.70;;;;;;5002302;28;20659;-74
2022/02/06 14:55:55;;;;;;;5.28;3.13;;;16.30;48.30;;;;;;5004789;28;20181;-73
2022/02/06 14:58:25;;;;;;;3.83;3.53;;;16.20;48.30;;;;;;5001411;28;20195;-73
2022/02/06 15:00:51;;;;;;;5.68;3.20;;;16.00;48.30;;;;;;5004371;28;20181;-73
2022/02/06 15:03:19;;;;;;;9.73;3.80;;;15.90;48.50;;;;;;5003632;28;20204;-73
2022/02/06 15:05:47;;;;;;;3.92;3.63;;;15.80;48.30;;;;;;5003782;28;20187;-74
2022/02/06 15:08:14;;;;;;;3.70;3.40;;;15.50;47.30;;;;;;5018690;28;20456;-72
2022/02/06 15:10:40;;;;;;;3.92;3.63;;;15.00;48.90;;;;;;5001754;28;20209;-73
2022/02/06 15:13:11;;;;;;;4.90;4.13;;;14.70;48.20;;;;;;5003312;28;20267;-74
2022/02/06 15:15:45;;;;;;;3.33;3.13;;;14.40;49.00;;;;;;5001326;28;20677;-72
2022/02/06 15:21:01;;;;;;;4.10;3.20;;;14.10;50.40;;;;;;4982270;28;20240;-73
2022/02/06 15:23:27;;;;;;;3.15;2.95;;;13.90;50.00;;;;;;4981356;28;20190;-74
2022/02/06 15:25:54;;;;;;;2.95;2.75;;;13.70;49.50;;;;;;4982879;28;20204;-72
2022/02/06 15:28:21;;;;;;;3.42;3.17;;;13.40;49.90;;;;;;4978358;28;20254;-72
2022/02/06 15:30:47;;;;;;;6.50;3.58;;;13.20;49.80;;;;;;4980834;28;20189;-73
2022/02/06 15:33:13;;;;;;;4.20;3.83;;;12.80;50.50;;;;;;4975392;28;20197;-72
2022/02/06 15:35:39;;;;;;;3.80;3.47;;;12.50;50.80;;;;;;4980104;28;20229;-71
2022/02/06 15:38:07;;;;;;;3.33;3.03;;;12.20;51.20;;;;;;4979359;28;20216;-72
2022/02/06 15:40:34;;;;;;;5.88;3.60;;;11.90;51.50;;;;;;4979802;28;20197;-74
2022/02/06 15:43:00;;;;;;;7.68;5.90;;;11.70;51.70;;;;;;4981149;28;21217;-73
2022/02/06 15:45:27;;;;;;;12.23;7.50;;;11.50;53.00;;;;;;4979347;28;20928;-71
2022/02/06 15:47:53;;;;;;;10.70;8.30;;;11.10;54.40;;;;;;4981828;28;20687;-73
2022/02/06 15:50:19;;;;;;;11.90;8.23;;;10.90;54.80;;;;;;4980408;28;20186;-74
2022/02/06 15:52:45;;;;;;;15.77;7.95;;;10.70;55.50;;;;;;4978182;28;20196;-73